sensor_id;sensor_type;location;lat;lon;timestamp;P1;durP1;ratioP1;P2;durP2;ratioP2
75459;SDS011;64039;53.060;9.342;2023-05-10T00:01:31;4.10;;;2.30;;
75459;SDS011;64039;53.060;9.342;2023-05-10T00:03:57;4.10;;;2.15;;
75459;SDS011;64039;53.060;9.342;2023-05-10T00:06:22;6.45;;;2.20;;
75459;SDS011;64039;53.060;9.342;2023-05-10T00:08:48;4.60;;;2.15;;
75459;SDS011;64039;53.060;9.342;2023-05-10T00:11:13;4.63;;;2.10;;
75459;SDS011;64039;53.060;9.342;2023-05-10T00:13:39;3.15;;;2.00;;
75459;SDS011;64039;53.060;9.342;2023-05-10T00:16:05;3.53;;;2.10;;
75459;SDS011;64039;53.060;9.342;2023-05-10T00:18:30;4.03;;;1.90;;
75459;SDS011;64039;53.060;9.342;2023-05-10T00:20:56;4.70;;;2.10;;
75459;SDS011;64039;53.060;9.342;2023-05-10T00:23:21;4.22;;;2.00;;
75459;SDS011;64039;53.060;9.342;2023-05-10T00:25:47;4.38;;;2.10;;
75459;SDS011;64039;53.060;9.342;2023-05-10T00:28:12;4.30;;;2.13;;
75459;SDS011;64039;53.060;9.342;2023-05-10T00:30:37;2.40;;;2.10;;
75459;SDS011;64039;53.060;9.342;2023-05-10T00:33:03;2.80;;;2.10;;
75459;SDS011;64039;53.060;9.342;2023-05-10T00:35:28;7.75;;;2.17;;
75459;SDS011;64039;53.060;9.342;2023-05-10T00:37:54;5.22;;;2.25;;
75459;SDS011;64039;53.060;9.342;2023-05-10T00:40:19;3.78;;;2.30;;
75459;SDS011;64039;53.060;9.342;2023-05-10T00:42:45;3.30;;;2.08;;
75459;SDS011;64039;53.060;9.342;2023-05-10T00:45:11;5.05;;;2.45;;
75459;SDS011;64039;53.060;9.342;2023-05-10T00:47:36;5.18;;;2.40;;
75459;SDS011;64039;53.060;9.342;2023-05-10T00:50:02;7.70;;;2.22;;
75459;SDS011;64039;53.060;9.342;2023-05-10T00:52:29;4.43;;;2.00;;
75459;SDS011;64039;53.060;9.342;2023-05-10T00:54:55;7.65;;;2.75;;
75459;SDS011;64039;53.060;9.342;2023-05-10T00:57:21;5.07;;;2.10;;
75459;SDS011;64039;53.060;9.342;2023-05-10T00:59:47;4.03;;;2.30;;
75459;SDS011;64039;53.060;9.342;2023-05-10T01:02:13;3.75;;;2.28;;
75459;SDS011;64039;53.060;9.342;2023-05-10T01:04:39;4.03;;;2.45;;
75459;SDS011;64039;53.060;9.342;2023-05-10T01:07:05;3.92;;;2.10;;
75459;SDS011;64039;53.060;9.342;2023-05-10T01:09:31;4.78;;;2.40;;
75459;SDS011;64039;53.060;9.342;2023-05-10T01:11:57;2.92;;;2.10;;
75459;SDS011;64039;53.060;9.342;2023-05-10T01:14:23;5.70;;;2.60;;
75459;SDS011;64039;53.060;9.342;2023-05-10T01:16:50;5.72;;;2.40;;
75459;SDS011;64039;53.060;9.342;2023-05-10T01:19:19;3.03;;;2.50;;
75459;SDS011;64039;53.060;9.342;2023-05-10T01:33:01;2.95;;;2.45;;
75459;SDS011;64039;53.060;9.342;2023-05-10T01:35:38;3.72;;;2.50;;
75459;SDS011;64039;53.060;9.342;2023-05-10T01:40:57;3.70;;;2.22;;
75459;SDS011;64039;53.060;9.342;2023-05-10T01:43:38;6.13;;;2.35;;
75459;SDS011;64039;53.060;9.342;2023-05-10T01:46:28;5.72;;;2.38;;
75459;SDS011;64039;53.060;9.342;2023-05-10T01:49:00;4.40;;;2.67;;
75459;SDS011;64039;53.060;9.342;2023-05-10T01:51:29;3.97;;;2.40;;
75459;SDS011;64039;53.060;9.342;2023-05-10T01:54:01;5.47;;;2.40;;
75459;SDS011;64039;53.060;9.342;2023-05-10T01:56:28;4.57;;;2.50;;
75459;SDS011;64039;53.060;9.342;2023-05-10T01:58:55;3.30;;;2.35;;
75459;SDS011;64039;53.060;9.342;2023-05-10T02:01:22;3.97;;;2.53;;
75459;SDS011;64039;53.060;9.342;2023-05-10T02:03:51;6.18;;;2.92;;
75459;SDS011;64039;53.060;9.342;2023-05-10T02:06:18;4.40;;;2.80;;
75459;SDS011;64039;53.060;9.342;2023-05-10T02:08:46;5.93;;;2.65;;
75459;SDS011;64039;53.060;9.342;2023-05-10T02:11:14;5.35;;;2.60;;
75459;SDS011;64039;53.060;9.342;2023-05-10T02:13:40;4.68;;;2.70;;
75459;SDS011;64039;53.060;9.342;2023-05-10T02:16:08;4.30;;;2.65;;
75459;SDS011;64039;53.060;9.342;2023-05-10T02:18:34;6.72;;;2.83;;
75459;SDS011;64039;53.060;9.342;2023-05-10T02:21:01;5.20;;;2.97;;
75459;SDS011;64039;53.060;9.342;2023-05-10T02:23:28;4.55;;;2.60;;
75459;SDS011;64039;53.060;9.342;2023-05-10T02:25:53;8.30;;;2.65;;
75459;SDS011;64039;53.060;9.342;2023-05-10T02:28:21;3.92;;;2.58;;
75459;SDS011;64039;53.060;9.342;2023-05-10T02:30:50;3.40;;;2.50;;
75459;SDS011;64039;53.060;9.342;2023-05-10T02:33:17;3.42;;;2.60;;
75459;SDS011;64039;53.060;9.342;2023-05-10T02:35:44;4.00;;;2.90;;
75459;SDS011;64039;53.060;9.342;2023-05-10T02:38:11;7.50;;;2.67;;
75459;SDS011;64039;53.060;9.342;2023-05-10T02:40:38;4.90;;;2.40;;
75459;SDS011;64039;53.060;9.342;2023-05-10T02:43:06;6.53;;;3.00;;
75459;SDS011;64039;53.060;9.342;2023-05-10T02:45:36;4.13;;;2.58;;
75459;SDS011;64039;53.060;9.342;2023-05-10T02:48:04;4.35;;;2.58;;
75459;SDS011;64039;53.060;9.342;2023-05-10T02:50:29;3.53;;;2.70;;
75459;SDS011;64039;53.060;9.342;2023-05-10T02:53:02;6.07;;;3.00;;
75459;SDS011;64039;53.060;9.342;2023-05-10T02:55:38;4.20;;;2.75;;
75459;SDS011;64039;53.060;9.342;2023-05-10T02:58:05;4.30;;;2.92;;
75459;SDS011;64039;53.060;9.342;2023-05-10T03:00:31;5.43;;;2.90;;
75459;SDS011;64039;53.060;9.342;2023-05-10T03:02:57;5.25;;;2.67;;
75459;SDS011;64039;53.060;9.342;2023-05-10T03:05:23;4.55;;;3.00;;
75459;SDS011;64039;53.060;9.342;2023-05-10T03:07:48;4.30;;;2.70;;
75459;SDS011;64039;53.060;9.342;2023-05-10T03:10:14;3.97;;;2.88;;
75459;SDS011;64039;53.060;9.342;2023-05-10T03:21:08;3.63;;;2.72;;
75459;SDS011;64039;53.060;9.342;2023-05-10T03:26:20;4.65;;;2.65;;
75459;SDS011;64039;53.060;9.342;2023-05-10T03:28:52;5.03;;;3.10;;
75459;SDS011;64039;53.060;9.342;2023-05-10T03:31:17;5.45;;;2.92;;
75459;SDS011;64039;53.060;9.342;2023-05-10T03:33:49;4.78;;;3.05;;
75459;SDS011;64039;53.060;9.342;2023-05-10T03:36:15;4.13;;;2.80;;
75459;SDS011;64039;53.060;9.342;2023-05-10T03:38:41;4.07;;;2.70;;
75459;SDS011;64039;53.060;9.342;2023-05-10T03:41:06;3.10;;;2.60;;
75459;SDS011;64039;53.060;9.342;2023-05-10T03:43:32;3.72;;;2.83;;
75459;SDS011;64039;53.060;9.342;2023-05-10T03:45:57;5.30;;;3.10;;
75459;SDS011;64039;53.060;9.342;2023-05-10T03:48:23;7.35;;;3.30;;
75459;SDS011;64039;53.060;9.342;2023-05-10T03:50:48;3.70;;;2.60;;
75459;SDS011;64039;53.060;9.342;2023-05-10T03:53:14;6.43;;;2.97;;
75459;SDS011;64039;53.060;9.342;2023-05-10T03:55:40;5.93;;;2.92;;
75459;SDS011;64039;53.060;9.342;2023-05-10T03:58:06;4.93;;;3.28;;
75459;SDS011;64039;53.060;9.342;2023-05-10T04:00:31;4.13;;;2.90;;
75459;SDS011;64039;53.060;9.342;2023-05-10T04:02:57;5.13;;;2.97;;
75459;SDS011;64039;53.060;9.342;2023-05-10T04:05:23;6.82;;;3.20;;
75459;SDS011;64039;53.060;9.342;2023-05-10T04:07:48;5.85;;;2.88;;
75459;SDS011;64039;53.060;9.342;2023-05-10T04:10:14;3.90;;;2.85;;
75459;SDS011;64039;53.060;9.342;2023-05-10T04:12:41;6.45;;;3.60;;
75459;SDS011;64039;53.060;9.342;2023-05-10T04:15:07;4.13;;;3.10;;
75459;SDS011;64039;53.060;9.342;2023-05-10T04:17:33;3.60;;;3.08;;
75459;SDS011;64039;53.060;9.342;2023-05-10T04:19:58;3.78;;;2.65;;
75459;SDS011;64039;53.060;9.342;2023-05-10T04:22:24;3.97;;;2.92;;
75459;SDS011;64039;53.060;9.342;2023-05-10T04:24:49;4.55;;;3.15;;
75459;SDS011;64039;53.060;9.342;2023-05-10T04:27:15;5.10;;;2.92;;
75459;SDS011;64039;53.060;9.342;2023-05-10T04:29:40;5.78;;;3.15;;
75459;SDS011;64039;53.060;9.342;2023-05-10T04:32:06;5.30;;;3.10;;
75459;SDS011;64039;53.060;9.342;2023-05-10T04:34:32;4.13;;;3.00;;
75459;SDS011;64039;53.060;9.342;2023-05-10T04:36:59;5.30;;;3.42;;
75459;SDS011;64039;53.060;9.342;2023-05-10T04:39:24;3.75;;;3.08;;
75459;SDS011;64039;53.060;9.342;2023-05-10T04:41:50;3.83;;;2.80;;
75459;SDS011;64039;53.060;9.342;2023-05-10T04:44:15;7.18;;;2.90;;
75459;SDS011;64039;53.060;9.342;2023-05-10T04:46:41;4.53;;;3.30;;
75459;SDS011;64039;53.060;9.342;2023-05-10T04:49:07;7.55;;;3.15;;
75459;SDS011;64039;53.060;9.342;2023-05-10T04:51:32;5.13;;;3.03;;
75459;SDS011;64039;53.060;9.342;2023-05-10T04:53:58;4.80;;;3.17;;
75459;SDS011;64039;53.060;9.342;2023-05-10T04:56:23;6.15;;;3.10;;
75459;SDS011;64039;53.060;9.342;2023-05-10T04:58:49;5.40;;;3.13;;
75459;SDS011;64039;53.060;9.342;2023-05-10T05:01:15;3.72;;;3.20;;
75459;SDS011;64039;53.060;9.342;2023-05-10T05:03:40;4.95;;;3.20;;
75459;SDS011;64039;53.060;9.342;2023-05-10T05:06:06;4.80;;;3.08;;
75459;SDS011;64039;53.060;9.342;2023-05-10T05:08:31;4.55;;;3.05;;
75459;SDS011;64039;53.060;9.342;2023-05-10T05:10:57;3.80;;;3.05;;
75459;SDS011;64039;53.060;9.342;2023-05-10T05:13:22;4.90;;;3.15;;
75459;SDS011;64039;53.060;9.342;2023-05-10T05:15:48;4.68;;;3.35;;
75459;SDS011;64039;53.060;9.342;2023-05-10T05:18:13;4.75;;;3.38;;
75459;SDS011;64039;53.060;9.342;2023-05-10T05:20:39;8.05;;;3.60;;
75459;SDS011;64039;53.060;9.342;2023-05-10T05:23:04;4.95;;;3.38;;
75459;SDS011;64039;53.060;9.342;2023-05-10T05:25:31;4.25;;;3.40;;
75459;SDS011;64039;53.060;9.342;2023-05-10T05:27:57;5.80;;;3.60;;
75459;SDS011;64039;53.060;9.342;2023-05-10T05:30:22;5.13;;;3.42;;
75459;SDS011;64039;53.060;9.342;2023-05-10T05:32:48;5.22;;;3.45;;
75459;SDS011;64039;53.060;9.342;2023-05-10T05:35:13;7.15;;;3.58;;
75459;SDS011;64039;53.060;9.342;2023-05-10T05:37:39;4.43;;;3.58;;
75459;SDS011;64039;53.060;9.342;2023-05-10T05:40:05;5.68;;;4.10;;
75459;SDS011;64039;53.060;9.342;2023-05-10T05:42:31;6.88;;;4.28;;
75459;SDS011;64039;53.060;9.342;2023-05-10T05:44:57;5.57;;;4.10;;
75459;SDS011;64039;53.060;9.342;2023-05-10T05:47:22;6.13;;;3.88;;
75459;SDS011;64039;53.060;9.342;2023-05-10T05:49:48;5.75;;;4.30;;
75459;SDS011;64039;53.060;9.342;2023-05-10T05:52:13;5.38;;;3.78;;
75459;SDS011;64039;53.060;9.342;2023-05-10T05:54:39;7.68;;;4.75;;
75459;SDS011;64039;53.060;9.342;2023-05-10T05:57:04;9.15;;;4.35;;
75459;SDS011;64039;53.060;9.342;2023-05-10T05:59:30;9.70;;;4.50;;
75459;SDS011;64039;53.060;9.342;2023-05-10T06:01:55;7.22;;;4.57;;
75459;SDS011;64039;53.060;9.342;2023-05-10T06:04:21;6.95;;;4.28;;
75459;SDS011;64039;53.060;9.342;2023-05-10T06:06:46;6.65;;;4.57;;
75459;SDS011;64039;53.060;9.342;2023-05-10T06:09:12;9.35;;;4.57;;
75459;SDS011;64039;53.060;9.342;2023-05-10T06:11:37;8.80;;;4.50;;
75459;SDS011;64039;53.060;9.342;2023-05-10T06:14:03;5.82;;;4.35;;
75459;SDS011;64039;53.060;9.342;2023-05-10T06:16:29;5.82;;;4.35;;
75459;SDS011;64039;53.060;9.342;2023-05-10T06:18:55;6.40;;;4.72;;
75459;SDS011;64039;53.060;9.342;2023-05-10T06:21:21;6.90;;;4.70;;
75459;SDS011;64039;53.060;9.342;2023-05-10T06:23:47;8.25;;;4.57;;
75459;SDS011;64039;53.060;9.342;2023-05-10T06:26:12;6.78;;;5.00;;
75459;SDS011;64039;53.060;9.342;2023-05-10T06:28:38;6.57;;;4.63;;
75459;SDS011;64039;53.060;9.342;2023-05-10T06:31:04;8.82;;;4.60;;
75459;SDS011;64039;53.060;9.342;2023-05-10T06:33:30;9.05;;;5.10;;
75459;SDS011;64039;53.060;9.342;2023-05-10T06:35:55;6.55;;;4.70;;
75459;SDS011;64039;53.060;9.342;2023-05-10T06:38:21;7.45;;;4.93;;
75459;SDS011;64039;53.060;9.342;2023-05-10T06:40:46;9.43;;;5.45;;
75459;SDS011;64039;53.060;9.342;2023-05-10T06:43:12;8.73;;;5.68;;
75459;SDS011;64039;53.060;9.342;2023-05-10T06:45:37;11.02;;;5.85;;
75459;SDS011;64039;53.060;9.342;2023-05-10T06:48:03;8.85;;;5.20;;
75459;SDS011;64039;53.060;9.342;2023-05-10T06:50:28;7.05;;;5.20;;
75459;SDS011;64039;53.060;9.342;2023-05-10T06:52:54;7.53;;;5.03;;
75459;SDS011;64039;53.060;9.342;2023-05-10T06:55:20;8.95;;;5.13;;
75459;SDS011;64039;53.060;9.342;2023-05-10T06:57:46;8.55;;;5.13;;
75459;SDS011;64039;53.060;9.342;2023-05-10T07:00:12;7.75;;;5.20;;
75459;SDS011;64039;53.060;9.342;2023-05-10T07:02:38;11.38;;;5.38;;
75459;SDS011;64039;53.060;9.342;2023-05-10T07:05:04;11.27;;;6.07;;
75459;SDS011;64039;53.060;9.342;2023-05-10T07:07:30;9.48;;;5.40;;
75459;SDS011;64039;53.060;9.342;2023-05-10T07:09:55;10.85;;;5.25;;
75459;SDS011;64039;53.060;9.342;2023-05-10T07:12:22;8.20;;;4.97;;
75459;SDS011;64039;53.060;9.342;2023-05-10T07:14:48;8.75;;;5.90;;
75459;SDS011;64039;53.060;9.342;2023-05-10T07:17:13;8.27;;;5.70;;
75459;SDS011;64039;53.060;9.342;2023-05-10T07:19:39;8.98;;;5.95;;
75459;SDS011;64039;53.060;9.342;2023-05-10T07:22:04;8.73;;;5.78;;
75459;SDS011;64039;53.060;9.342;2023-05-10T07:24:30;11.73;;;6.45;;
75459;SDS011;64039;53.060;9.342;2023-05-10T07:26:57;9.70;;;6.32;;
75459;SDS011;64039;53.060;9.342;2023-05-10T07:29:22;7.72;;;6.03;;
75459;SDS011;64039;53.060;9.342;2023-05-10T07:31:48;10.00;;;6.35;;
75459;SDS011;64039;53.060;9.342;2023-05-10T07:34:13;10.02;;;6.38;;
75459;SDS011;64039;53.060;9.342;2023-05-10T07:36:38;7.75;;;5.88;;
75459;SDS011;64039;53.060;9.342;2023-05-10T07:39:04;8.63;;;6.30;;
75459;SDS011;64039;53.060;9.342;2023-05-10T07:41:30;10.90;;;6.53;;
75459;SDS011;64039;53.060;9.342;2023-05-10T07:43:55;9.18;;;6.40;;
75459;SDS011;64039;53.060;9.342;2023-05-10T07:46:21;11.23;;;7.05;;
75459;SDS011;64039;53.060;9.342;2023-05-10T07:48:46;9.25;;;6.43;;
75459;SDS011;64039;53.060;9.342;2023-05-10T07:51:12;9.90;;;6.55;;
75459;SDS011;64039;53.060;9.342;2023-05-10T07:53:37;11.70;;;7.22;;
75459;SDS011;64039;53.060;9.342;2023-05-10T07:58:52;11.32;;;7.03;;
75459;SDS011;64039;53.060;9.342;2023-05-10T08:01:20;11.68;;;6.97;;
75459;SDS011;64039;53.060;9.342;2023-05-10T08:03:45;12.45;;;7.28;;
75459;SDS011;64039;53.060;9.342;2023-05-10T08:06:11;9.75;;;6.88;;
75459;SDS011;64039;53.060;9.342;2023-05-10T08:08:37;11.93;;;7.50;;
75459;SDS011;64039;53.060;9.342;2023-05-10T08:11:03;9.63;;;6.68;;
75459;SDS011;64039;53.060;9.342;2023-05-10T08:13:29;9.15;;;6.90;;
75459;SDS011;64039;53.060;9.342;2023-05-10T08:15:54;11.23;;;7.22;;
75459;SDS011;64039;53.060;9.342;2023-05-10T08:18:20;10.90;;;7.10;;
75459;SDS011;64039;53.060;9.342;2023-05-10T08:20:46;11.85;;;6.85;;
75459;SDS011;64039;53.060;9.342;2023-05-10T08:23:14;10.10;;;7.18;;
75459;SDS011;64039;53.060;9.342;2023-05-10T08:25:40;9.32;;;6.63;;
75459;SDS011;64039;53.060;9.342;2023-05-10T08:28:05;11.60;;;8.02;;
75459;SDS011;64039;53.060;9.342;2023-05-10T08:30:30;10.27;;;6.82;;
75459;SDS011;64039;53.060;9.342;2023-05-10T08:32:56;10.30;;;6.97;;
75459;SDS011;64039;53.060;9.342;2023-05-10T08:35:21;9.60;;;7.25;;
75459;SDS011;64039;53.060;9.342;2023-05-10T08:37:47;9.40;;;7.32;;
75459;SDS011;64039;53.060;9.342;2023-05-10T08:40:12;15.10;;;7.82;;
75459;SDS011;64039;53.060;9.342;2023-05-10T08:42:41;8.32;;;6.60;;
75459;SDS011;64039;53.060;9.342;2023-05-10T08:45:10;10.70;;;6.88;;
75459;SDS011;64039;53.060;9.342;2023-05-10T08:47:36;10.20;;;7.60;;
75459;SDS011;64039;53.060;9.342;2023-05-10T08:50:03;11.43;;;7.85;;
75459;SDS011;64039;53.060;9.342;2023-05-10T08:52:29;9.23;;;7.30;;
75459;SDS011;64039;53.060;9.342;2023-05-10T08:54:56;8.98;;;7.22;;
75459;SDS011;64039;53.060;9.342;2023-05-10T08:57:22;10.52;;;7.35;;
75459;SDS011;64039;53.060;9.342;2023-05-10T08:59:47;10.13;;;6.65;;
75459;SDS011;64039;53.060;9.342;2023-05-10T09:02:13;9.52;;;7.30;;
75459;SDS011;64039;53.060;9.342;2023-05-10T09:04:38;10.60;;;8.07;;
75459;SDS011;64039;53.060;9.342;2023-05-10T09:07:04;12.15;;;8.30;;
75459;SDS011;64039;53.060;9.342;2023-05-10T09:09:31;10.63;;;7.10;;
75459;SDS011;64039;53.060;9.342;2023-05-10T09:11:58;10.13;;;7.82;;
75459;SDS011;64039;53.060;9.342;2023-05-10T09:14:23;9.50;;;7.70;;
75459;SDS011;64039;53.060;9.342;2023-05-10T09:16:49;13.50;;;8.32;;
75459;SDS011;64039;53.060;9.342;2023-05-10T09:19:15;8.63;;;6.32;;
75459;SDS011;64039;53.060;9.342;2023-05-10T09:21:41;8.65;;;6.32;;
75459;SDS011;64039;53.060;9.342;2023-05-10T09:24:07;8.48;;;6.50;;
75459;SDS011;64039;53.060;9.342;2023-05-10T09:26:33;9.45;;;7.00;;
75459;SDS011;64039;53.060;9.342;2023-05-10T09:29:00;8.20;;;6.63;;
75459;SDS011;64039;53.060;9.342;2023-05-10T09:31:42;7.50;;;6.00;;
75459;SDS011;64039;53.060;9.342;2023-05-10T09:34:16;9.05;;;6.65;;
75459;SDS011;64039;53.060;9.342;2023-05-10T09:39:37;7.10;;;6.10;;
75459;SDS011;64039;53.060;9.342;2023-05-10T09:42:06;8.02;;;5.88;;
75459;SDS011;64039;53.060;9.342;2023-05-10T09:44:34;6.72;;;5.75;;
75459;SDS011;64039;53.060;9.342;2023-05-10T09:47:03;6.45;;;5.32;;
75459;SDS011;64039;53.060;9.342;2023-05-10T09:49:29;7.18;;;5.95;;
75459;SDS011;64039;53.060;9.342;2023-05-10T09:52:04;7.75;;;5.70;;
75459;SDS011;64039;53.060;9.342;2023-05-10T09:54:31;7.78;;;5.90;;
75459;SDS011;64039;53.060;9.342;2023-05-10T09:56:57;7.03;;;5.45;;
75459;SDS011;64039;53.060;9.342;2023-05-10T09:59:23;8.65;;;5.95;;
75459;SDS011;64039;53.060;9.342;2023-05-10T10:01:52;7.85;;;6.22;;
75459;SDS011;64039;53.060;9.342;2023-05-10T10:04:18;7.07;;;5.85;;
75459;SDS011;64039;53.060;9.342;2023-05-10T10:06:45;7.13;;;6.20;;
75459;SDS011;64039;53.060;9.342;2023-05-10T10:09:10;7.95;;;5.70;;
75459;SDS011;64039;53.060;9.342;2023-05-10T10:11:36;6.60;;;5.88;;
75459;SDS011;64039;53.060;9.342;2023-05-10T10:14:03;8.02;;;6.88;;
75459;SDS011;64039;53.060;9.342;2023-05-10T10:16:29;7.55;;;6.72;;
75459;SDS011;64039;53.060;9.342;2023-05-10T10:18:56;6.63;;;5.68;;
75459;SDS011;64039;53.060;9.342;2023-05-10T10:21:22;6.97;;;6.00;;
75459;SDS011;64039;53.060;9.342;2023-05-10T10:23:49;8.20;;;6.85;;
75459;SDS011;64039;53.060;9.342;2023-05-10T10:26:15;6.10;;;5.20;;
75459;SDS011;64039;53.060;9.342;2023-05-10T10:29:01;7.15;;;5.97;;
75459;SDS011;64039;53.060;9.342;2023-05-10T10:31:45;5.95;;;4.78;;
75459;SDS011;64039;53.060;9.342;2023-05-10T10:34:25;5.63;;;4.90;;
75459;SDS011;64039;53.060;9.342;2023-05-10T10:36:52;4.93;;;4.35;;
75459;SDS011;64039;53.060;9.342;2023-05-10T10:39:20;6.25;;;3.90;;
75459;SDS011;64039;53.060;9.342;2023-05-10T10:41:50;5.18;;;4.57;;
75459;SDS011;64039;53.060;9.342;2023-05-10T10:44:26;4.28;;;3.88;;
75459;SDS011;64039;53.060;9.342;2023-05-10T10:49:25;4.90;;;3.88;;
75459;SDS011;64039;53.060;9.342;2023-05-10T10:57:18;4.90;;;4.10;;
75459;SDS011;64039;53.060;9.342;2023-05-10T10:59:46;4.47;;;3.63;;
75459;SDS011;64039;53.060;9.342;2023-05-10T11:08:00;5.95;;;4.00;;
75459;SDS011;64039;53.060;9.342;2023-05-10T11:10:31;5.05;;;3.63;;
75459;SDS011;64039;53.060;9.342;2023-05-10T11:13:04;5.47;;;3.15;;
75459;SDS011;64039;53.060;9.342;2023-05-10T11:15:32;4.28;;;3.05;;
75459;SDS011;64039;53.060;9.342;2023-05-10T11:17:59;3.38;;;2.70;;
75459;SDS011;64039;53.060;9.342;2023-05-10T11:20:27;4.55;;;2.97;;
75459;SDS011;64039;53.060;9.342;2023-05-10T11:22:58;3.55;;;3.00;;
75459;SDS011;64039;53.060;9.342;2023-05-10T11:25:40;2.95;;;2.67;;
75459;SDS011;64039;53.060;9.342;2023-05-10T11:28:11;5.57;;;3.80;;
75459;SDS011;64039;53.060;9.342;2023-05-10T11:30:38;4.72;;;2.80;;
75459;SDS011;64039;53.060;9.342;2023-05-10T11:33:05;3.33;;;2.88;;
75459;SDS011;64039;53.060;9.342;2023-05-10T11:35:37;3.17;;;2.50;;
75459;SDS011;64039;53.060;9.342;2023-05-10T11:38:07;4.80;;;2.53;;
75459;SDS011;64039;53.060;9.342;2023-05-10T11:40:34;3.03;;;2.58;;
75459;SDS011;64039;53.060;9.342;2023-05-10T11:43:00;4.20;;;3.28;;
75459;SDS011;64039;53.060;9.342;2023-05-10T11:45:26;2.85;;;2.40;;
75459;SDS011;64039;53.060;9.342;2023-05-10T11:47:54;3.58;;;2.78;;
75459;SDS011;64039;53.060;9.342;2023-05-10T11:50:20;2.90;;;2.30;;
75459;SDS011;64039;53.060;9.342;2023-05-10T11:52:50;4.47;;;3.05;;
75459;SDS011;64039;53.060;9.342;2023-05-10T11:55:17;6.10;;;3.85;;
75459;SDS011;64039;53.060;9.342;2023-05-10T11:57:42;6.47;;;2.80;;
75459;SDS011;64039;53.060;9.342;2023-05-10T12:00:10;6.60;;;3.85;;
75459;SDS011;64039;53.060;9.342;2023-05-10T12:02:36;5.57;;;3.15;;
75459;SDS011;64039;53.060;9.342;2023-05-10T12:05:01;4.70;;;3.10;;
75459;SDS011;64039;53.060;9.342;2023-05-10T12:07:28;5.72;;;3.35;;
75459;SDS011;64039;53.060;9.342;2023-05-10T12:12:46;5.82;;;3.33;;
75459;SDS011;64039;53.060;9.342;2023-05-10T12:17:47;5.22;;;3.33;;
75459;SDS011;64039;53.060;9.342;2023-05-10T12:20:13;5.55;;;3.55;;
75459;SDS011;64039;53.060;9.342;2023-05-10T12:22:46;5.00;;;3.70;;
75459;SDS011;64039;53.060;9.342;2023-05-10T12:25:16;4.47;;;2.72;;
75459;SDS011;64039;53.060;9.342;2023-05-10T12:27:52;3.95;;;2.85;;
75459;SDS011;64039;53.060;9.342;2023-05-10T12:30:30;6.78;;;3.20;;
75459;SDS011;64039;53.060;9.342;2023-05-10T12:33:00;4.53;;;3.15;;
75459;SDS011;64039;53.060;9.342;2023-05-10T12:35:30;4.57;;;2.90;;
75459;SDS011;64039;53.060;9.342;2023-05-10T12:37:56;5.35;;;3.00;;
75459;SDS011;64039;53.060;9.342;2023-05-10T12:40:21;5.03;;;3.03;;
75459;SDS011;64039;53.060;9.342;2023-05-10T12:42:47;5.03;;;3.28;;
75459;SDS011;64039;53.060;9.342;2023-05-10T12:45:13;4.38;;;3.05;;
75459;SDS011;64039;53.060;9.342;2023-05-10T12:47:40;7.32;;;3.75;;
75459;SDS011;64039;53.060;9.342;2023-05-10T12:50:06;4.95;;;3.20;;
75459;SDS011;64039;53.060;9.342;2023-05-10T12:52:32;4.50;;;2.55;;
75459;SDS011;64039;53.060;9.342;2023-05-10T12:54:57;3.13;;;2.55;;
75459;SDS011;64039;53.060;9.342;2023-05-10T12:57:24;5.13;;;2.63;;
75459;SDS011;64039;53.060;9.342;2023-05-10T12:59:49;4.13;;;2.97;;
75459;SDS011;64039;53.060;9.342;2023-05-10T13:02:15;3.70;;;2.38;;
75459;SDS011;64039;53.060;9.342;2023-05-10T13:04:43;4.28;;;2.30;;
75459;SDS011;64039;53.060;9.342;2023-05-10T13:07:09;3.10;;;2.38;;
75459;SDS011;64039;53.060;9.342;2023-05-10T13:09:35;3.42;;;2.20;;
75459;SDS011;64039;53.060;9.342;2023-05-10T13:12:00;3.83;;;2.60;;
75459;SDS011;64039;53.060;9.342;2023-05-10T13:14:26;3.35;;;2.53;;
75459;SDS011;64039;53.060;9.342;2023-05-10T13:16:52;3.17;;;2.50;;
75459;SDS011;64039;53.060;9.342;2023-05-10T13:19:17;5.53;;;2.30;;
75459;SDS011;64039;53.060;9.342;2023-05-10T13:21:43;4.15;;;2.28;;
75459;SDS011;64039;53.060;9.342;2023-05-10T13:24:11;3.28;;;1.20;;
75459;SDS011;64039;53.060;9.342;2023-05-10T13:26:39;0.85;;;0.80;;
75459;SDS011;64039;53.060;9.342;2023-05-10T13:29:05;3.05;;;0.90;;
75459;SDS011;64039;53.060;9.342;2023-05-10T13:31:31;2.38;;;1.60;;
75459;SDS011;64039;53.060;9.342;2023-05-10T13:33:56;3.10;;;0.90;;
75459;SDS011;64039;53.060;9.342;2023-05-10T13:36:22;1.83;;;1.30;;
75459;SDS011;64039;53.060;9.342;2023-05-10T13:38:48;2.08;;;1.25;;
75459;SDS011;64039;53.060;9.342;2023-05-10T13:41:13;0.85;;;0.85;;
75459;SDS011;64039;53.060;9.342;2023-05-10T13:43:39;1.08;;;0.98;;
75459;SDS011;64039;53.060;9.342;2023-05-10T13:46:04;1.27;;;1.00;;
75459;SDS011;64039;53.060;9.342;2023-05-10T13:48:30;1.60;;;1.20;;
75459;SDS011;64039;53.060;9.342;2023-05-10T13:50:55;2.08;;;1.50;;
75459;SDS011;64039;53.060;9.342;2023-05-10T13:53:21;1.08;;;0.98;;
75459;SDS011;64039;53.060;9.342;2023-05-10T13:55:46;1.02;;;0.80;;
75459;SDS011;64039;53.060;9.342;2023-05-10T13:58:12;1.25;;;0.98;;
75459;SDS011;64039;53.060;9.342;2023-05-10T14:00:37;1.00;;;0.90;;
75459;SDS011;64039;53.060;9.342;2023-05-10T14:03:03;1.17;;;1.00;;
75459;SDS011;64039;53.060;9.342;2023-05-10T14:05:30;2.50;;;1.63;;
75459;SDS011;64039;53.060;9.342;2023-05-10T14:07:55;9.23;;;3.88;;
75459;SDS011;64039;53.060;9.342;2023-05-10T14:10:21;5.10;;;2.80;;
75459;SDS011;64039;53.060;9.342;2023-05-10T14:12:46;5.50;;;2.35;;
75459;SDS011;64039;53.060;9.342;2023-05-10T14:15:12;1.90;;;1.30;;
75459;SDS011;64039;53.060;9.342;2023-05-10T14:17:37;1.50;;;1.20;;
75459;SDS011;64039;53.060;9.342;2023-05-10T14:20:03;1.38;;;0.90;;
75459;SDS011;64039;53.060;9.342;2023-05-10T14:22:29;1.65;;;1.10;;
75459;SDS011;64039;53.060;9.342;2023-05-10T14:24:54;0.90;;;0.90;;
75459;SDS011;64039;53.060;9.342;2023-05-10T14:27:20;1.10;;;0.93;;
75459;SDS011;64039;53.060;9.342;2023-05-10T14:29:46;1.15;;;1.05;;
75459;SDS011;64039;53.060;9.342;2023-05-10T14:32:12;1.67;;;1.10;;
75459;SDS011;64039;53.060;9.342;2023-05-10T14:34:38;2.40;;;2.10;;
75459;SDS011;64039;53.060;9.342;2023-05-10T14:37:03;1.27;;;1.10;;
75459;SDS011;64039;53.060;9.342;2023-05-10T14:39:29;2.20;;;1.08;;
75459;SDS011;64039;53.060;9.342;2023-05-10T14:41:55;1.20;;;1.10;;
75459;SDS011;64039;53.060;9.342;2023-05-10T14:44:21;2.28;;;1.85;;
75459;SDS011;64039;53.060;9.342;2023-05-10T14:46:46;1.65;;;1.40;;
75459;SDS011;64039;53.060;9.342;2023-05-10T14:49:13;3.75;;;1.73;;
75459;SDS011;64039;53.060;9.342;2023-05-10T14:51:38;1.55;;;1.45;;
75459;SDS011;64039;53.060;9.342;2023-05-10T14:54:04;1.60;;;1.40;;
75459;SDS011;64039;53.060;9.342;2023-05-10T14:56:29;3.00;;;1.67;;
75459;SDS011;64039;53.060;9.342;2023-05-10T14:58:55;3.08;;;1.83;;
75459;SDS011;64039;53.060;9.342;2023-05-10T15:01:20;2.45;;;2.13;;
75459;SDS011;64039;53.060;9.342;2023-05-10T15:03:46;3.50;;;2.08;;
75459;SDS011;64039;53.060;9.342;2023-05-10T15:06:13;2.60;;;2.25;;
75459;SDS011;64039;53.060;9.342;2023-05-10T15:08:39;2.05;;;1.85;;
75459;SDS011;64039;53.060;9.342;2023-05-10T15:11:04;2.42;;;2.22;;
75459;SDS011;64039;53.060;9.342;2023-05-10T15:13:30;2.67;;;2.47;;
75459;SDS011;64039;53.060;9.342;2023-05-10T15:15:55;2.65;;;2.40;;
75459;SDS011;64039;53.060;9.342;2023-05-10T15:18:21;2.50;;;2.30;;
75459;SDS011;64039;53.060;9.342;2023-05-10T15:20:46;5.00;;;2.38;;
75459;SDS011;64039;53.060;9.342;2023-05-10T15:23:12;3.00;;;2.70;;
75459;SDS011;64039;53.060;9.342;2023-05-10T15:25:37;2.60;;;2.40;;
75459;SDS011;64039;53.060;9.342;2023-05-10T15:28:03;3.08;;;2.78;;
75459;SDS011;64039;53.060;9.342;2023-05-10T15:30:29;2.53;;;2.20;;
75459;SDS011;64039;53.060;9.342;2023-05-10T15:32:54;2.90;;;2.58;;